Pagina principale
METAR-TAF:

METAR-TAF

Aeroporti :

Tolone, Francia

Aeroporto di Tolone-Hyères

latitudine: 43-06N, longitudine: 006-09E, altezza: 3 m

Osservazione

Il bollettino è stato emesso 33 minuti fa, alle 10:00 UTC
Vento 6 kt da sud-est, variando fra est e sud
Temperature 20°C
Umidità 64%
Pressione 1019 hPa
Visibilità 10 km o più
nessuna nube inferiore a 1500 m e nessun cumulonembo

METAR: LFTH 211000Z AUTO 13006KT 090V170 CAVOK 20/13 Q1019

Ora: 12:33 (10:33 UTC)

Previsione

Il bollettino è stato emesso 2 ore e 33 minuti fa, alle 08:00 UTC
Previsione valida dal 21 alle 09 UTC al 22 alle 09 UTC
Vento kt da nord
Visibilità 10 km o più
nessuna nube inferiore a 1500 m e nessun cumulonembo
Evoluzione graduale
dal 21 alle 11 UTC al 21 alle 12 UTC
Vento 5 kt da est/sud-est
Evoluzione graduale
dal 21 alle 18 UTC al 21 alle 20 UTC
Vento 3 kt da direzioni variabili

TAF: LFTH 210800Z 2109/2209 00000KT CAVOK BECMG 2111/2112 12005KT BECMG 2118/2120 VRB03KT

Osservazioni e previsioni meteorologiche di più di 4000 aeroporti (messaggi METAR e TAF).

Le stazioni disponibili sono rappresentate dai dischi gialli e rossi sulla carta.

Puntare il mouse per vedere il nome della stazione.

Clicca sopra per visualizzare le osservazioni e previsioni meteorologiche.

Per cambiare la mappa : fare clic sui pulsanti verdi con una croce nera per ingrandire, il pulsante verde con un trattino per diminuire, o sulla freccia verde per le mappe adiacenti.


METAR-TAF: